Futenma Marine Corps Air Facility, Japan

2:32 PM JST on August 05, 2015 (GMT +0900)
Hiyagon | | Change Station
CLOSE
Current Station
Personal Weather Station
Location: Okinawa, OKINAWA
Elevation: 23 ft
Nearby Weather Stations

Elev 23 ft 26.32 °N, 127.82 °E | Updated 8 seconds ago

Partly Cloudy
Partly Cloudy
90.5 °F
Feels Like 105 °F
N
2.7
Wind Variable Wind from SE
Gusts 4.9 mph

Today
High -- | Low -- °F
--% Chance of Precip.
Yesterday
High -- | Low -- °F
Precip. -- in
5:56 AM 7:13 PM
Waning Gibbous, 71% visible
Pressure 29.68 in
Visibility 6.2 miles
Clouds Few 2000 ft
Few 2500 ft
Heat Index 105 °F
Dew Point 78 °F
Humidity 66%
Rainfall 0.00 in
Snow Depth Not available.
UV 14 out of 12
Pollen Not available.
Air Quality Not available.
Flu Activity Not available.
METAR ROAH 050500Z 07013KT 030V110 9999 VCSH FEW020 FEW025TCU 33/23 Q1005 RMK 1CU020 1TCU025 A2970 TCU 15KM N MOV SW

More Conditions Fewer Conditions

Pressure 29.68 in
Visibility 6.2 miles
Clouds Few 2000 ft
Few 2500 ft
Heat Index 105 °F
Dew Point 78 °F
Humidity 66%
Rainfall 0.00 in
Snow Depth Not available.
UV 14 out of 12
Pollen Not available.
Air Quality Not available.
Flu Activity Not available.
METAR ROAH 050500Z 07013KT 030V110 9999 VCSH FEW020 FEW025TCU 33/23 Q1005 RMK 1CU020 1TCU025 A2970 TCU 15KM N MOV SW

More Conditions Fewer Conditions

10-Day Weather Forecast

×

Almanac

Astronomy

Aug. 05, 2015 Rise Set
Actual Time
Civil Twilight
Nautical Twilight
Astronomical Twilight
Moon
Length of Visible Light
Length of Day
Tomorrow will be .
, % of the Moon is Illuminated

Today's Extremes

Country Highs Country Lows

Community

WunderPhotos

Upload Photos

1,844,098 photos uploaded!

WunderBlogs® & News

Nearby

Air Quality

  Air Quality AQ Index Pollutant
Not available.

Snow Depth

Station Depth Elevation

Earthquake Activity

City Distance Mag. Time & Date
Minimum magnitude displayed is 2.5.

Coastal Water Temperatures

Place Temperature

Stations

Nearby Weather Stations

Station Location Temp. Windchill Dew Point Humidity Wind Precip. Elev Updated Type